Time;durP1;ratioP1;P1;durP2;ratioP2;P2;SDS_P1;SDS_P2;PMS_P1;PMS_P2;Temp;Humidity;BMP_temperature;BMP_pressure;BME280_temperature;BME280_humidity;BME280_pressure;Samples;Min_cycle;Max_cycle;Signal;HPM_P1;HPM_P2
2021/12/08 00:00:10;;;;;;;15.07;6.32;;;;;;;;;;5088145;28;20047;-62
2021/12/08 00:02:36;;;;;;;11.82;6.30;;;;;;;;;;5087724;28;20074;-62
2021/12/08 00:05:03;;;;;;;12.20;6.50;;;;;;;;;;5090206;28;20091;-62
2021/12/08 00:07:29;;;;;;;10.30;5.35;;;;;;;;;;5089227;28;20477;-62
2021/12/08 00:10:15;;;;;;;16.25;6.93;;;;;;;;;;5089879;28;20030;-62
2021/12/08 00:13:24;;;;;;;10.68;5.68;;;;;;;;;;5088089;28;20495;-62
2021/12/08 00:15:41;;;;;;;13.88;6.43;;;;;;;;;;5078929;28;20098;-62
2021/12/08 00:18:09;;;;;;;11.73;4.93;;;;;;;;;;5087977;28;20206;-62
2021/12/08 00:20:36;;;;;;;9.50;5.65;;;;;;;;;;5087970;28;20029;-62
2021/12/08 00:23:03;;;;;;;10.38;5.20;;;;;;;;;;5090087;28;20016;-62
2021/12/08 00:25:29;;;;;;;11.55;4.85;;;;;;;;;;5088067;28;20107;-62
2021/12/08 00:27:56;;;;;;;9.73;4.00;;;;;;;;;;5087915;28;20031;-62
2021/12/08 00:30:22;;;;;;;5.95;3.10;;;;;;;;;;5087934;28;20496;-62
2021/12/08 00:32:50;;;;;;;10.20;5.57;;;;;;;;;;5088297;28;20099;-62
2021/12/08 00:35:16;;;;;;;13.35;5.65;;;;;;;;;;5092363;28;20077;-62
2021/12/08 00:37:42;;;;;;;10.18;5.00;;;;;;;;;;5093731;28;20133;-62
2021/12/08 00:40:11;;;;;;;9.07;4.82;;;;;;;;;;5091181;28;20032;-62
2021/12/08 00:42:37;;;;;;;11.98;4.65;;;;;;;;;;5091518;28;20381;-62
2021/12/08 00:45:08;;;;;;;8.27;4.22;;;;;;;;;;5091053;28;20038;-62
2021/12/08 00:47:34;;;;;;;7.95;4.00;;;;;;;;;;5091565;28;20031;-62
2021/12/08 00:50:00;;;;;;;9.43;3.50;;;;;;;;;;5092853;28;20051;-62
2021/12/08 00:52:29;;;;;;;9.10;3.83;;;;;;;;;;5092198;28;20450;-62
2021/12/08 00:54:55;;;;;;;6.82;3.30;;;;;;;;;;5091113;28;20028;-62
2021/12/08 00:57:22;;;;;;;5.93;2.95;;;;;;;;;;5091251;28;20040;-62
2021/12/08 00:59:48;;;;;;;6.35;2.97;;;;;;;;;;5090931;28;20016;-62
2021/12/08 01:02:14;;;;;;;8.30;3.45;;;;;;;;;;5092151;28;20031;-62
2021/12/08 01:04:40;;;;;;;8.45;4.00;;;;;;;;;;5093184;28;20035;-62
2021/12/08 01:07:06;;;;;;;8.02;4.00;;;;;;;;;;5090768;28;20040;-62
2021/12/08 01:09:32;;;;;;;7.45;4.13;;;;;;;;;;5093267;28;20537;-62
2021/12/08 01:12:01;;;;;;;9.57;4.60;;;;;;;;;;5090598;28;20086;-62
2021/12/08 01:14:28;;;;;;;7.75;4.00;;;;;;;;;;5090571;28;20044;-62
2021/12/08 01:16:54;;;;;;;9.45;4.03;;;;;;;;;;5093988;28;20473;-62
2021/12/08 01:19:20;;;;;;;6.75;3.53;;;;;;;;;;5091296;28;20031;-62
2021/12/08 01:21:46;;;;;;;6.88;3.40;;;;;;;;;;5090007;28;20020;-62
2021/12/08 01:24:12;;;;;;;5.82;3.47;;;;;;;;;;5090344;28;20028;-62
2021/12/08 01:26:38;;;;;;;6.72;3.85;;;;;;;;;;5090462;28;20091;-62
2021/12/08 01:29:07;;;;;;;7.80;3.70;;;;;;;;;;5093082;28;20396;-62
2021/12/08 01:31:33;;;;;;;;;;;;;;;;;;5092417;28;20094;-62
2021/12/08 01:33:59;;;;;;;6.30;3.17;;;;;;;;;;5090066;28;20383;-62
2021/12/08 01:36:25;;;;;;;4.80;2.60;;;;;;;;;;5089695;28;20024;-62
2021/12/08 01:38:51;;;;;;;7.53;3.10;;;;;;;;;;5090636;28;20058;-62
2021/12/08 01:41:17;;;;;;;7.07;2.85;;;;;;;;;;5091340;28;20024;-62
2021/12/08 01:45:56;;;;;;;8.50;4.38;;;;;;;;;;5092886;28;20077;-62
2021/12/08 01:46:29;;;;;;;8.77;4.72;;;;;;;;;;5092563;28;20031;-62
2021/12/08 01:48:56;;;;;;;8.88;4.65;;;;;;;;;;5090090;28;20020;-62
2021/12/08 01:51:22;;;;;;;8.20;4.43;;;;;;;;;;5089956;28;20093;-62
2021/12/08 01:53:49;;;;;;;7.68;4.47;;;;;;;;;;5090282;28;20031;-62
2021/12/08 01:56:17;;;;;;;8.57;4.90;;;;;;;;;;5072969;28;20036;-62
2021/12/08 01:58:43;;;;;;;8.30;4.10;;;;;;;;;;5092507;28;20389;-62
2021/12/08 02:01:11;;;;;;;8.90;4.20;;;;;;;;;;5067318;28;20090;-62
2021/12/08 02:03:39;;;;;;;8.00;3.53;;;;;;;;;;5090080;28;20026;-62
2021/12/08 02:06:06;;;;;;;8.27;3.50;;;;;;;;;;5089669;28;20438;-62
2021/12/08 02:08:33;;;;;;;8.65;3.90;;;;;;;;;;5091434;28;20024;-62
2021/12/08 02:11:00;;;;;;;7.03;4.30;;;;;;;;;;5092260;28;20503;-62
2021/12/08 02:13:30;;;;;;;7.95;3.88;;;;;;;;;;5090920;28;20385;-62
2021/12/08 02:15:56;;;;;;;7.97;3.95;;;;;;;;;;5089550;28;20039;-62
2021/12/08 02:18:22;;;;;;;7.55;4.00;;;;;;;;;;5088894;28;20098;-62
2021/12/08 02:20:49;;;;;;;9.95;4.10;;;;;;;;;;5089773;28;20059;-62
2021/12/08 02:23:16;;;;;;;9.07;4.38;;;;;;;;;;5090411;28;20437;-62
2021/12/08 02:25:44;;;;;;;7.70;4.20;;;;;;;;;;5091966;28;20020;-62
2021/12/08 02:28:10;;;;;;;;;;;;;;;;;;5090018;28;20123;-62
2021/12/08 02:30:44;;;;;;;8.30;3.80;;;;;;;;;;5089454;28;19959;-62
2021/12/08 02:49:30;;;;;;;5.72;3.00;;;;;;;;;;5091447;28;20048;-62
2021/12/08 02:51:56;;;;;;;6.70;3.33;;;;;;;;;;5088691;28;20123;-63
2021/12/08 02:54:22;;;;;;;6.50;3.33;;;;;;;;;;5065948;28;20448;-62
2021/12/08 02:56:48;;;;;;;5.15;2.80;;;;;;;;;;5088647;28;20028;-62
2021/12/08 02:59:15;;;;;;;5.07;2.75;;;;;;;;;;5090341;28;23048;-62
2021/12/08 03:01:41;;;;;;;4.70;2.50;;;;;;;;;;5090793;28;20067;-62
2021/12/08 03:04:08;;;;;;;8.93;3.45;;;;;;;;;;5088350;28;20081;-62
2021/12/08 03:06:34;;;;;;;5.45;2.80;;;;;;;;;;5088802;28;20028;-62
2021/12/08 03:09:01;;;;;;;5.93;2.53;;;;;;;;;;5090506;28;20141;-62
2021/12/08 03:11:27;;;;;;;7.15;3.78;;;;;;;;;;5088267;28;20032;-61
2021/12/08 03:14:02;;;;;;;10.30;4.10;;;;;;;;;;5091771;28;20502;-62
2021/12/08 03:16:28;;;;;;;6.28;3.42;;;;;;;;;;5089689;28;20032;-62
2021/12/08 03:18:54;;;;;;;7.28;3.38;;;;;;;;;;5088362;28;20027;-62
2021/12/08 03:21:27;;;;;;;9.32;4.00;;;;;;;;;;5088640;28;20020;-62
2021/12/08 03:24:38;;;;;;;6.80;3.58;;;;;;;;;;5088223;28;20035;-62
2021/12/08 03:27:08;;;;;;;6.90;3.20;;;;;;;;;;5064080;28;20025;-62
2021/12/08 03:29:53;;;;;;;5.60;3.00;;;;;;;;;;5074322;28;20445;-62
2021/12/08 03:32:28;;;;;;;5.70;2.72;;;;;;;;;;5088873;28;20028;-62
2021/12/08 03:34:54;;;;;;;6.35;2.95;;;;;;;;;;5087884;28;20040;-62
2021/12/08 03:37:25;;;;;;;8.27;3.38;;;;;;;;;;5088447;28;20020;-62
2021/12/08 03:39:52;;;;;;;7.45;3.38;;;;;;;;;;5088210;28;20047;-62
2021/12/08 03:42:20;;;;;;;7.13;3.08;;;;;;;;;;5088362;28;20031;-62
2021/12/08 03:44:47;;;;;;;8.32;3.53;;;;;;;;;;5088235;28;20103;-62
2021/12/08 03:47:18;;;;;;;5.63;3.03;;;;;;;;;;5070823;28;20036;-62
2021/12/08 03:49:45;;;;;;;6.88;3.58;;;;;;;;;;5091058;28;20040;-62
2021/12/08 03:52:11;;;;;;;6.72;3.83;;;;;;;;;;5088112;28;20036;-62
2021/12/08 03:54:38;;;;;;;6.88;3.40;;;;;;;;;;5088009;28;20032;-62
2021/12/08 03:57:04;;;;;;;6.82;3.28;;;;;;;;;;5088351;28;20042;-62
2021/12/08 03:59:30;;;;;;;5.20;3.15;;;;;;;;;;5087201;28;20064;-62
2021/12/08 04:01:56;;;;;;;6.22;3.08;;;;;;;;;;5090584;28;20117;-62
2021/12/08 04:04:28;;;;;;;6.07;3.25;;;;;;;;;;5088867;28;20493;-62
2021/12/08 04:06:55;;;;;;;5.65;3.35;;;;;;;;;;5088649;28;20097;-62
2021/12/08 04:09:31;;;;;;;5.90;3.15;;;;;;;;;;5093983;28;20069;-62
2021/12/08 04:11:57;;;;;;;4.78;2.70;;;;;;;;;;5092171;28;20032;-62
2021/12/08 04:14:25;;;;;;;6.22;2.95;;;;;;;;;;5091348;28;20039;-62
2021/12/08 04:16:53;;;;;;;5.75;2.97;;;;;;;;;;5095416;28;20495;-62
2021/12/08 04:19:20;;;;;;;6.00;2.80;;;;;;;;;;5093990;28;20036;-62
2021/12/08 04:21:47;;;;;;;7.07;3.60;;;;;;;;;;5091741;28;20074;-62
2021/12/08 04:24:14;;;;;;;5.80;3.00;;;;;;;;;;5091034;28;20059;-62
2021/12/08 04:26:52;;;;;;;8.38;2.53;;;;;;;;;;5092355;28;20408;-62
2021/12/08 04:29:19;;;;;;;6.57;3.10;;;;;;;;;;5092510;28;20030;-62
2021/12/08 04:31:48;;;;;;;5.47;3.03;;;;;;;;;;5094716;28;20052;-62
2021/12/08 04:34:24;;;;;;;6.82;2.92;;;;;;;;;;5091247;28;20055;-61
2021/12/08 04:36:51;;;;;;;5.95;2.80;;;;;;;;;;5091654;28;20514;-62
2021/12/08 04:39:25;;;;;;;6.63;2.97;;;;;;;;;;5091536;28;20012;-62
2021/12/08 04:41:58;;;;;;;6.70;2.88;;;;;;;;;;5091616;28;20107;-62
2021/12/08 04:44:32;;;;;;;6.97;2.80;;;;;;;;;;5075169;28;20016;-62
2021/12/08 04:47:21;;;;;;;6.32;2.67;;;;;;;;;;5093900;28;20024;-62
2021/12/08 04:53:05;;;;;;;7.38;2.60;;;;;;;;;;5049026;28;20052;-62
2021/12/08 05:09:14;;;;;;;6.15;2.50;;;;;;;;;;5083405;28;20129;-63
2021/12/08 05:11:43;;;;;;;4.43;2.35;;;;;;;;;;5091179;28;20103;-62
2021/12/08 05:14:18;;;;;;;4.78;2.30;;;;;;;;;;5092042;28;20034;-62
2021/12/08 05:16:46;;;;;;;5.05;2.25;;;;;;;;;;5093364;28;20052;-62
2021/12/08 05:19:14;;;;;;;4.35;2.00;;;;;;;;;;5090350;28;20057;-61
2021/12/08 05:22:04;;;;;;;2.65;1.40;;;;;;;;;;5090373;28;20457;-62
2021/12/08 05:24:35;;;;;;;3.83;1.80;;;;;;;;;;5082624;28;20043;-62
2021/12/08 05:27:06;;;;;;;7.20;2.78;;;;;;;;;;5090558;28;20043;-62
2021/12/08 05:29:40;;;;;;;6.07;2.90;;;;;;;;;;5090796;28;20036;-62
2021/12/08 05:32:06;;;;;;;5.43;2.78;;;;;;;;;;5092473;28;20329;-62
2021/12/08 05:34:33;;;;;;;6.75;2.88;;;;;;;;;;5091376;28;20451;-62
2021/12/08 05:36:59;;;;;;;7.25;3.05;;;;;;;;;;5067988;28;20474;-62
2021/12/08 05:39:26;;;;;;;4.70;2.05;;;;;;;;;;5090309;28;20527;-60
2021/12/08 05:41:56;;;;;;;4.45;2.42;;;;;;;;;;5089807;28;20100;-61
2021/12/08 05:44:22;;;;;;;4.05;2.53;;;;;;;;;;5074214;28;20032;-61
2021/12/08 05:46:50;;;;;;;3.65;1.85;;;;;;;;;;5089388;28;20035;-62
2021/12/08 05:49:18;;;;;;;4.40;1.95;;;;;;;;;;5090030;28;20040;-62
2021/12/08 05:51:45;;;;;;;5.68;2.05;;;;;;;;;;5090290;28;20028;-62
2021/12/08 05:54:13;;;;;;;4.78;2.55;;;;;;;;;;5089926;28;20419;-62
2021/12/08 05:56:39;;;;;;;4.85;2.60;;;;;;;;;;5089764;28;20024;-62
2021/12/08 05:59:07;;;;;;;5.72;2.60;;;;;;;;;;5092181;28;20534;-62
2021/12/08 06:01:53;;;;;;;5.72;2.30;;;;;;;;;;5091377;28;20090;-63
2021/12/08 06:04:19;;;;;;;5.78;2.42;;;;;;;;;;5091743;28;20040;-63
2021/12/08 06:06:47;;;;;;;4.82;2.47;;;;;;;;;;5089897;28;20023;-63
2021/12/08 06:09:14;;;;;;;4.03;2.60;;;;;;;;;;5091703;28;20032;-62
2021/12/08 06:11:41;;;;;;;4.93;2.30;;;;;;;;;;5089431;28;20107;-62
2021/12/08 06:14:07;;;;;;;5.60;2.90;;;;;;;;;;5092024;28;20020;-62
2021/12/08 06:16:35;;;;;;;4.93;2.45;;;;;;;;;;5091094;28;20036;-62
2021/12/08 06:19:01;;;;;;;5.35;2.38;;;;;;;;;;5089491;28;20020;-63
2021/12/08 06:21:28;;;;;;;5.50;2.60;;;;;;;;;;5088711;28;20050;-63
2021/12/08 06:23:55;;;;;;;5.03;2.70;;;;;;;;;;5089589;28;20027;-62
2021/12/08 06:26:22;;;;;;;5.40;2.67;;;;;;;;;;5073513;28;20032;-63
2021/12/08 06:28:48;;;;;;;5.63;2.40;;;;;;;;;;5092552;28;20050;-61
2021/12/08 06:31:15;;;;;;;4.32;2.10;;;;;;;;;;5088248;28;20063;-63
2021/12/08 06:33:41;;;;;;;4.50;2.17;;;;;;;;;;5089004;28;20069;-64
2021/12/08 06:36:09;;;;;;;5.15;2.38;;;;;;;;;;5089094;28;20063;-69
2021/12/08 06:38:35;;;;;;;3.13;1.75;;;;;;;;;;5089403;28;20024;-63
2021/12/08 06:41:04;;;;;;;4.68;2.40;;;;;;;;;;5091309;28;20039;-63
2021/12/08 06:43:33;;;;;;;5.18;2.72;;;;;;;;;;5081035;28;20031;-63
2021/12/08 06:46:01;;;;;;;4.25;2.50;;;;;;;;;;5086179;28;20077;-63
2021/12/08 06:48:30;;;;;;;5.63;2.88;;;;;;;;;;5088835;28;20393;-63
2021/12/08 06:51:01;;;;;;;5.03;2.72;;;;;;;;;;5084469;28;20044;-63
2021/12/08 06:53:27;;;;;;;6.78;2.47;;;;;;;;;;5082013;28;20032;-63
2021/12/08 06:55:56;;;;;;;6.32;2.70;;;;;;;;;;5082887;28;20032;-62
2021/12/08 06:58:24;;;;;;;4.88;2.42;;;;;;;;;;5084269;28;20024;-63
2021/12/08 07:01:15;;;;;;;4.13;2.30;;;;;;;;;;5084407;28;20089;-65
2021/12/08 07:06:12;;;;;;;;;;;;;;;;;;5085157;28;20062;-62
2021/12/08 07:08:48;;;;;;;6.57;3.20;;;;;;;;;;5077198;28;19908;-64
2021/12/08 07:11:16;;;;;;;5.75;3.00;;;;;;;;;;5089626;28;20032;-65
2021/12/08 07:13:42;;;;;;;5.18;3.03;;;;;;;;;;5091257;28;20104;-66
2021/12/08 07:16:10;;;;;;;6.07;3.08;;;;;;;;;;5088509;28;20040;-66
2021/12/08 07:18:39;;;;;;;;;;;;;;;;;;5082146;28;20119;-67
2021/12/08 07:21:08;;;;;;;4.43;2.95;;;;;;;;;;5080503;28;19911;-67
2021/12/08 07:23:37;;;;;;;6.05;2.95;;;;;;;;;;5085318;28;20393;-68
2021/12/08 07:26:15;;;;;;;5.80;3.00;;;;;;;;;;5089638;28;20108;-63
2021/12/08 07:28:41;;;;;;;5.88;3.10;;;;;;;;;;5088134;28;20527;-64
2021/12/08 07:31:10;;;;;;;6.18;2.97;;;;;;;;;;5085885;28;20035;-65
2021/12/08 07:33:37;;;;;;;4.07;2.55;;;;;;;;;;5087043;28;20388;-64
2021/12/08 07:36:09;;;;;;;6.03;3.08;;;;;;;;;;5087312;28;20040;-64
2021/12/08 07:38:35;;;;;;;5.18;2.97;;;;;;;;;;5085847;28;20130;-63
2021/12/08 07:41:06;;;;;;;7.55;3.42;;;;;;;;;;5089297;28;20191;-63
2021/12/08 07:43:33;;;;;;;6.55;3.63;;;;;;;;;;5088303;28;20032;-63
2021/12/08 07:46:06;;;;;;;7.28;3.50;;;;;;;;;;5087905;28;20107;-63
2021/12/08 07:48:43;;;;;;;4.50;2.85;;;;;;;;;;5086878;28;20492;-62
2021/12/08 07:51:14;;;;;;;8.32;3.35;;;;;;;;;;5086608;28;20036;-62
2021/12/08 07:53:40;;;;;;;8.98;3.53;;;;;;;;;;5085682;28;20024;-61
2021/12/08 07:56:08;;;;;;;6.75;3.30;;;;;;;;;;5088239;28;20111;-62
2021/12/08 07:58:35;;;;;;;8.50;4.33;;;;;;;;;;5068824;28;20031;-61
2021/12/08 08:01:10;;;;;;;8.52;4.07;;;;;;;;;;5087515;28;20028;-62
2021/12/08 08:03:36;;;;;;;7.45;4.47;;;;;;;;;;5087875;28;20024;-62
2021/12/08 08:06:05;;;;;;;6.30;3.97;;;;;;;;;;5087829;28;20431;-61
2021/12/08 08:08:34;;;;;;;8.90;4.85;;;;;;;;;;5089261;28;20020;-61
2021/12/08 08:11:03;;;;;;;6.82;4.00;;;;;;;;;;5089882;28;20024;-61
2021/12/08 08:13:30;;;;;;;6.97;3.72;;;;;;;;;;5088305;28;20078;-60
2021/12/08 08:16:05;;;;;;;6.60;3.70;;;;;;;;;;5087849;28;20120;-60
2021/12/08 08:18:32;;;;;;;7.30;3.90;;;;;;;;;;5086667;28;20534;-62
2021/12/08 08:21:00;;;;;;;10.15;4.40;;;;;;;;;;5087647;28;20070;-62
2021/12/08 08:23:28;;;;;;;8.68;4.72;;;;;;;;;;5086740;28;20024;-62
2021/12/08 08:25:55;;;;;;;8.65;5.22;;;;;;;;;;5090616;28;20097;-62
2021/12/08 08:28:21;;;;;;;10.10;5.82;;;;;;;;;;5089697;28;20031;-62
2021/12/08 08:30:49;;;;;;;8.15;5.10;;;;;;;;;;5087501;28;20024;-62
2021/12/08 08:33:15;;;;;;;10.82;6.65;;;;;;;;;;5086863;28;20081;-62
2021/12/08 08:35:49;;;;;;;12.77;5.85;;;;;;;;;;5087539;28;20126;-62
2021/12/08 08:38:19;;;;;;;6.13;3.55;;;;;;;;;;5087847;28;20070;-62
2021/12/08 08:40:47;;;;;;;7.25;4.07;;;;;;;;;;5090736;28;20028;-62
2021/12/08 08:43:13;;;;;;;;;;;;;;;;;;5087816;28;20081;-61
2021/12/08 08:45:44;;;;;;;6.45;3.38;;;;;;;;;;5086940;28;19908;-62
2021/12/08 08:48:13;;;;;;;7.50;4.28;;;;;;;;;;5086535;28;20102;-62
2021/12/08 08:50:43;;;;;;;6.65;3.78;;;;;;;;;;5087047;28;20505;-62
2021/12/08 08:53:10;;;;;;;10.95;5.95;;;;;;;;;;5087450;28;20017;-62
2021/12/08 08:55:40;;;;;;;10.70;5.95;;;;;;;;;;5088027;28;20110;-62
2021/12/08 08:58:08;;;;;;;10.75;6.75;;;;;;;;;;5088412;28;20062;-63
2021/12/08 09:00:47;;;;;;;14.73;9.38;;;;;;;;;;5073072;28;20028;-62
2021/12/08 09:03:16;;;;;;;11.85;7.05;;;;;;;;;;5087722;28;20113;-62
2021/12/08 09:05:44;;;;;;;12.30;6.97;;;;;;;;;;5084804;28;20166;-62
2021/12/08 09:08:11;;;;;;;13.13;7.20;;;;;;;;;;5091983;28;20095;-62
2021/12/08 09:10:55;;;;;;;12.50;7.95;;;;;;;;;;5093958;28;20481;-62
2021/12/08 09:13:24;;;;;;;14.35;9.40;;;;;;;;;;5071859;28;20401;-62
2021/12/08 09:15:55;;;;;;;13.13;7.75;;;;;;;;;;5081935;28;20044;-61
2021/12/08 09:18:30;;;;;;;16.33;9.38;;;;;;;;;;5082140;28;20035;-61
2021/12/08 09:21:15;;;;;;;16.13;9.45;;;;;;;;;;5090049;28;20016;-61
2021/12/08 09:23:50;;;;;;;14.15;8.68;;;;;;;;;;5076814;28;20073;-61
2021/12/08 09:26:17;;;;;;;13.68;9.15;;;;;;;;;;5091520;28;20443;-61
2021/12/08 09:28:46;;;;;;;14.68;8.77;;;;;;;;;;5093311;28;20094;-60
2021/12/08 09:31:24;;;;;;;12.40;7.95;;;;;;;;;;5087058;28;20031;-60
2021/12/08 09:33:59;;;;;;;13.60;8.50;;;;;;;;;;5086675;28;20036;-62
2021/12/08 09:36:31;;;;;;;13.70;8.80;;;;;;;;;;5087713;28;20028;-62
2021/12/08 09:39:01;;;;;;;14.80;8.90;;;;;;;;;;5085715;28;20036;-61
2021/12/08 09:41:38;;;;;;;16.38;10.07;;;;;;;;;;5085779;28;20024;-61
2021/12/08 09:44:09;;;;;;;16.80;10.00;;;;;;;;;;5084387;28;20024;-62
2021/12/08 09:46:39;;;;;;;15.55;9.90;;;;;;;;;;5083837;28;20016;-62
2021/12/08 09:49:06;;;;;;;15.35;9.52;;;;;;;;;;5088770;28;20039;-62
2021/12/08 09:51:33;;;;;;;19.13;11.55;;;;;;;;;;5085925;28;20024;-61
2021/12/08 09:53:59;;;;;;;18.55;10.43;;;;;;;;;;5085131;28;20028;-61
2021/12/08 09:56:26;;;;;;;14.25;8.70;;;;;;;;;;5085866;28;20032;-60
2021/12/08 09:58:53;;;;;;;15.48;10.20;;;;;;;;;;5086110;28;20035;-61
2021/12/08 10:01:22;;;;;;;13.07;9.23;;;;;;;;;;5091263;28;20040;-60
2021/12/08 10:03:49;;;;;;;14.05;8.95;;;;;;;;;;5089533;28;20020;-60
2021/12/08 10:06:15;;;;;;;15.48;9.40;;;;;;;;;;5089256;28;20476;-60
2021/12/08 10:08:42;;;;;;;16.88;10.38;;;;;;;;;;5091401;28;20127;-61
2021/12/08 10:11:09;;;;;;;16.52;10.25;;;;;;;;;;5092002;28;20477;-61
2021/12/08 10:13:35;;;;;;;18.30;10.98;;;;;;;;;;5091335;28;20020;-61
2021/12/08 10:16:01;;;;;;;16.08;10.32;;;;;;;;;;5089590;28;20039;-61
2021/12/08 10:18:27;;;;;;;14.30;8.63;;;;;;;;;;5089254;28;20020;-61
2021/12/08 10:20:54;;;;;;;18.20;7.85;;;;;;;;;;5089377;28;20036;-61
2021/12/08 10:23:20;;;;;;;13.15;7.35;;;;;;;;;;5089525;28;20481;-61
2021/12/08 10:25:54;;;;;;;13.52;8.20;;;;;;;;;;5092573;28;20031;-61
2021/12/08 10:28:28;;;;;;;14.80;8.60;;;;;;;;;;5091123;28;20028;-60
2021/12/08 10:31:02;;;;;;;15.48;9.07;;;;;;;;;;5089126;28;20474;-60
2021/12/08 10:33:54;;;;;;;11.02;7.20;;;;;;;;;;5088795;28;20032;-60
2021/12/08 10:39:30;;;;;;;13.43;8.07;;;;;;;;;;5057350;28;20036;-60
2021/12/08 10:41:56;;;;;;;15.90;9.95;;;;;;;;;;5089213;28;20036;-60
2021/12/08 10:44:24;;;;;;;19.20;11.27;;;;;;;;;;5073423;28;20028;-60
2021/12/08 10:46:50;;;;;;;;;;;;;;;;;;5087946;28;20472;-60
2021/12/08 10:49:26;;;;;;;22.38;13.52;;;;;;;;;;5088992;28;19956;-60
2021/12/08 10:54:38;;;;;;;19.30;10.73;;;;;;;;;;5088716;28;20133;-60
2021/12/08 10:57:18;;;;;;;19.15;12.07;;;;;;;;;;5089208;28;20028;-60
2021/12/08 10:59:53;;;;;;;18.50;10.82;;;;;;;;;;5088941;28;20039;-60
2021/12/08 11:02:38;;;;;;;13.15;7.88;;;;;;;;;;5090005;28;20034;-60
2021/12/08 11:05:06;;;;;;;40.25;8.57;;;;;;;;;;5085635;28;20028;-60
2021/12/08 11:07:32;;;;;;;14.05;7.95;;;;;;;;;;5082756;28;20053;-59
2021/12/08 11:09:58;;;;;;;12.45;8.07;;;;;;;;;;5086056;28;20033;-60
2021/12/08 11:12:42;;;;;;;12.25;7.50;;;;;;;;;;5081241;28;20020;-60
2021/12/08 11:15:20;;;;;;;13.13;7.70;;;;;;;;;;5088371;28;20079;-60
2021/12/08 11:17:46;;;;;;;14.55;9.48;;;;;;;;;;5087139;28;20028;-60
2021/12/08 11:20:17;;;;;;;17.75;10.90;;;;;;;;;;5090247;28;20028;-60
2021/12/08 11:22:47;;;;;;;38.65;22.70;;;;;;;;;;5090838;28;20034;-60
2021/12/08 11:25:23;;;;;;;36.97;22.40;;;;;;;;;;5085350;28;20032;-60
2021/12/08 11:27:49;;;;;;;32.05;18.65;;;;;;;;;;5083098;28;20115;-65
2021/12/08 11:30:17;;;;;;;23.33;14.70;;;;;;;;;;5086200;28;20039;-61
2021/12/08 11:32:43;;;;;;;21.40;13.83;;;;;;;;;;5088536;28;20028;-62
2021/12/08 11:35:23;;;;;;;17.08;10.35;;;;;;;;;;5089613;28;20058;-61
2021/12/08 11:38:01;;;;;;;16.27;9.70;;;;;;;;;;5091434;28;20021;-60
2021/12/08 11:40:27;;;;;;;;;;;;;;;;;;5091137;28;20024;-60
2021/12/08 11:42:53;;;;;;;68.18;46.75;;;;;;;;;;5087891;28;19915;-60
2021/12/08 11:45:21;;;;;;;35.67;25.33;;;;;;;;;;5086354;28;20024;-61
2021/12/08 11:47:47;;;;;;;15.13;9.37;;;;;;;;;;5084260;28;20046;-61
2021/12/08 11:50:15;;;;;;;16.20;9.82;;;;;;;;;;5086724;28;20051;-61
2021/12/08 11:52:42;;;;;;;17.42;9.77;;;;;;;;;;5089091;28;20027;-61
2021/12/08 11:55:09;;;;;;;16.50;10.07;;;;;;;;;;5086143;28;20036;-61
2021/12/08 11:57:37;;;;;;;15.75;9.52;;;;;;;;;;5085947;28;20423;-61
2021/12/08 12:00:03;;;;;;;54.78;26.20;;;;;;;;;;5086684;28;20036;-60
2021/12/08 12:02:34;;;;;;;14.88;8.20;;;;;;;;;;5086923;28;20040;-60
2021/12/08 12:05:01;;;;;;;13.20;8.75;;;;;;;;;;5088165;28;20473;-60
2021/12/08 12:07:27;;;;;;;15.35;8.23;;;;;;;;;;5083211;28;20020;-60
2021/12/08 12:09:53;;;;;;;17.55;10.35;;;;;;;;;;5088038;28;20028;-61
2021/12/08 12:12:19;;;;;;;16.70;10.35;;;;;;;;;;5086465;28;20051;-60
2021/12/08 12:14:45;;;;;;;12.68;7.55;;;;;;;;;;5086469;28;20060;-60
2021/12/08 12:17:11;;;;;;;11.90;7.45;;;;;;;;;;5087020;28;20028;-61
2021/12/08 12:19:42;;;;;;;11.02;7.35;;;;;;;;;;5087927;28;20024;-61
2021/12/08 12:22:11;;;;;;;11.18;7.50;;;;;;;;;;5063786;28;20028;-61
2021/12/08 12:24:56;;;;;;;12.55;7.32;;;;;;;;;;5080419;28;20021;-61
2021/12/08 12:27:40;;;;;;;10.90;6.88;;;;;;;;;;5080282;28;20548;-61
2021/12/08 12:30:12;;;;;;;12.52;7.13;;;;;;;;;;5091649;28;20032;-61
2021/12/08 12:32:46;;;;;;;12.45;7.88;;;;;;;;;;5091321;28;20043;-61
2021/12/08 12:35:18;;;;;;;13.73;8.32;;;;;;;;;;5092514;28;20051;-60
2021/12/08 12:37:44;;;;;;;11.93;7.85;;;;;;;;;;5093939;28;20253;-60
2021/12/08 12:40:15;;;;;;;10.88;7.50;;;;;;;;;;5089982;28;20024;-61
2021/12/08 12:42:43;;;;;;;13.85;7.90;;;;;;;;;;5092088;28;20070;-60
2021/12/08 12:45:12;;;;;;;16.90;10.05;;;;;;;;;;5091058;28;20400;-60
2021/12/08 12:47:39;;;;;;;17.17;10.88;;;;;;;;;;5090564;28;20043;-60
2021/12/08 12:50:04;;;;;;;17.73;11.52;;;;;;;;;;5092198;28;20043;-61
2021/12/08 12:52:36;;;;;;;16.75;9.77;;;;;;;;;;5091949;28;20403;-61
2021/12/08 12:55:07;;;;;;;16.45;9.75;;;;;;;;;;5090064;28;20036;-61
2021/12/08 12:57:33;;;;;;;20.83;11.00;;;;;;;;;;5089413;28;20016;-61
2021/12/08 12:59:59;;;;;;;18.98;11.38;;;;;;;;;;5087792;28;20465;-61
2021/12/08 13:02:36;;;;;;;23.60;12.65;;;;;;;;;;5088398;28;20028;-61
2021/12/08 13:05:02;;;;;;;22.48;13.63;;;;;;;;;;5091884;28;20344;-61
2021/12/08 13:07:30;;;;;;;14.85;9.40;;;;;;;;;;5090773;28;20024;-61
2021/12/08 13:09:57;;;;;;;14.77;9.23;;;;;;;;;;5091750;28;20046;-61
2021/12/08 13:12:24;;;;;;;20.52;10.85;;;;;;;;;;5089357;28;20024;-61
2021/12/08 13:15:05;;;;;;;15.52;10.27;;;;;;;;;;5090013;28;20027;-61
2021/12/08 13:17:32;;;;;;;17.50;10.45;;;;;;;;;;5079035;28;20127;-61
2021/12/08 13:19:59;;;;;;;18.02;10.93;;;;;;;;;;5092902;28;20081;-61
2021/12/08 13:22:46;;;;;;;15.50;9.40;;;;;;;;;;5091784;28;20543;-61
2021/12/08 13:25:30;;;;;;;18.83;11.00;;;;;;;;;;5082614;28;20059;-61
2021/12/08 13:27:56;;;;;;;19.75;10.82;;;;;;;;;;5089930;28;20140;-61
2021/12/08 13:30:23;;;;;;;18.13;11.23;;;;;;;;;;5090337;28;20016;-61
2021/12/08 13:32:57;;;;;;;18.55;11.13;;;;;;;;;;5090712;28;20016;-60
2021/12/08 13:35:33;;;;;;;17.85;10.38;;;;;;;;;;5090423;28;20086;-61
2021/12/08 13:37:59;;;;;;;19.90;11.32;;;;;;;;;;5089339;28;20039;-60
2021/12/08 13:40:47;;;;;;;18.95;11.88;;;;;;;;;;5091190;28;20036;-60
2021/12/08 13:43:31;;;;;;;22.00;13.68;;;;;;;;;;5089952;28;20103;-60
2021/12/08 13:45:57;;;;;;;20.83;13.55;;;;;;;;;;5090476;28;20125;-60
2021/12/08 13:48:24;;;;;;;21.08;12.25;;;;;;;;;;5090245;28;20020;-60
2021/12/08 13:50:50;;;;;;;18.63;11.48;;;;;;;;;;5089565;28;20048;-60
2021/12/08 13:53:17;;;;;;;17.95;11.38;;;;;;;;;;5090501;28;20075;-61
2021/12/08 13:55:44;;;;;;;16.40;10.63;;;;;;;;;;5092323;28;20044;-61
2021/12/08 13:58:15;;;;;;;17.25;11.68;;;;;;;;;;5089810;28;20029;-61
2021/12/08 14:00:47;;;;;;;18.85;12.10;;;;;;;;;;5089745;28;20497;-61
2021/12/08 14:03:15;;;;;;;21.45;13.65;;;;;;;;;;5089241;28;20024;-61
2021/12/08 14:05:46;;;;;;;20.05;11.23;;;;;;;;;;5089637;28;20024;-61
2021/12/08 14:08:33;;;;;;;14.82;8.65;;;;;;;;;;5092044;28;20166;-61
2021/12/08 14:11:07;;;;;;;15.50;9.82;;;;;;;;;;5088832;28;20030;-61
2021/12/08 14:13:39;;;;;;;18.20;10.40;;;;;;;;;;5092565;28;20032;-61
2021/12/08 14:16:12;;;;;;;19.20;12.23;;;;;;;;;;5088655;28;20074;-61
2021/12/08 14:18:38;;;;;;;26.75;16.88;;;;;;;;;;5089155;28;20039;-61
2021/12/08 14:21:06;;;;;;;22.50;15.23;;;;;;;;;;5089069;28;20032;-61
2021/12/08 14:23:33;;;;;;;24.20;15.63;;;;;;;;;;5089108;28;20043;-61
2021/12/08 14:26:10;;;;;;;23.20;13.48;;;;;;;;;;5091667;28;20031;-61
2021/12/08 14:28:49;;;;;;;21.70;13.70;;;;;;;;;;5091130;28;20028;-61
2021/12/08 14:31:45;;;;;;;21.55;12.90;;;;;;;;;;5071421;28;20020;-60
2021/12/08 14:34:27;;;;;;;18.80;12.50;;;;;;;;;;5073049;28;20347;-61
2021/12/08 14:36:57;;;;;;;19.75;12.35;;;;;;;;;;5088824;28;20070;-61
2021/12/08 14:39:35;;;;;;;20.10;13.60;;;;;;;;;;5088877;28;20028;-61
2021/12/08 14:42:02;;;;;;;20.05;13.57;;;;;;;;;;5088600;28;20024;-61
2021/12/08 14:44:41;;;;;;;17.70;10.95;;;;;;;;;;5088519;28;20087;-61
2021/12/08 14:47:08;;;;;;;17.45;11.77;;;;;;;;;;5091203;28;20481;-60
2021/12/08 14:49:36;;;;;;;21.42;13.48;;;;;;;;;;5090267;28;20048;-61
2021/12/08 14:52:04;;;;;;;17.95;11.80;;;;;;;;;;5087180;28;20036;-61
2021/12/08 14:54:51;;;;;;;20.75;12.60;;;;;;;;;;5088113;28;20859;-61
2021/12/08 14:57:20;;;;;;;27.92;14.38;;;;;;;;;;5088666;28;20131;-61
2021/12/08 15:00:05;;;;;;;40.13;24.73;;;;;;;;;;5085671;28;20111;-61
2021/12/08 15:02:35;;;;;;;39.67;23.45;;;;;;;;;;5085960;28;20023;-61
2021/12/08 15:05:03;;;;;;;35.33;21.88;;;;;;;;;;5088607;28;20154;-61
2021/12/08 15:07:29;;;;;;;31.05;19.50;;;;;;;;;;5090585;28;20032;-61
2021/12/08 15:10:07;;;;;;;32.40;19.52;;;;;;;;;;5071226;28;20036;-61
2021/12/08 15:12:33;;;;;;;25.58;15.68;;;;;;;;;;5087597;28;20404;-61
2021/12/08 15:14:59;;;;;;;23.02;14.13;;;;;;;;;;5088332;28;20043;-61
2021/12/08 15:17:26;;;;;;;25.55;13.73;;;;;;;;;;5087550;28;20028;-61
2021/12/08 15:19:53;;;;;;;27.17;16.83;;;;;;;;;;5086003;28;20415;-61
2021/12/08 15:22:24;;;;;;;28.88;16.80;;;;;;;;;;5085282;28;20032;-61
2021/12/08 15:25:05;;;;;;;25.98;16.50;;;;;;;;;;5085292;28;20377;-61
2021/12/08 15:27:35;;;;;;;26.33;15.93;;;;;;;;;;5068222;28;20032;-61
2021/12/08 15:30:01;;;;;;;28.73;17.02;;;;;;;;;;5084056;28;20099;-61
2021/12/08 15:32:27;;;;;;;28.50;16.75;;;;;;;;;;5082920;28;20470;-61